createdAt,value
2022-10-27T05:20:29.732Z,100634.97
2022-10-27T05:22:56.576Z,100629.75
2022-10-27T06:37:31.627Z,100643.84
2022-10-27T06:39:58.112Z,100657.03
2022-10-27T06:42:24.825Z,100656.84
2022-10-27T06:44:51.672Z,100658.19
2022-10-27T06:47:18.051Z,100668.59
2022-10-27T06:49:44.440Z,100675.78
2022-10-27T06:52:10.830Z,100681.44
2022-10-27T06:54:37.196Z,100678.31
2022-10-27T06:57:03.641Z,100689.13
2022-10-27T06:59:30.027Z,100673.56
2022-10-27T07:01:56.590Z,100679.34
2022-10-27T07:04:23.095Z,100673.81
2022-10-27T07:06:49.459Z,100668.09
2022-10-27T07:09:15.868Z,100669.81
2022-10-27T07:11:42.252Z,100667.00
2022-10-27T07:14:08.665Z,100666.22
2022-10-27T07:16:35.231Z,100656.66
2022-10-27T07:19:02.159Z,100661.03
2022-10-27T07:21:28.993Z,100673.13
2022-10-27T07:23:55.414Z,100672.47
2022-10-27T07:26:21.812Z,100672.28
2022-10-27T07:28:48.292Z,100672.97
2022-10-27T07:31:14.690Z,100680.81
2022-10-27T07:33:41.070Z,100687.16
2022-10-27T07:36:07.647Z,100694.16
2022-10-27T07:38:34.556Z,100688.94
2022-10-27T07:41:01.088Z,100693.19
2022-10-27T07:43:27.560Z,100696.72
2022-10-27T07:45:53.996Z,100694.91
2022-10-27T07:48:20.382Z,100700.03
2022-10-27T07:50:46.807Z,100700.22
2022-10-27T07:53:15.446Z,100701.16
2022-10-27T07:55:42.040Z,100698.44
2022-10-27T07:58:16.216Z,100701.91
2022-10-27T08:00:47.900Z,100700.13
2022-10-27T08:03:19.300Z,100702.03
2022-10-27T08:05:45.813Z,100693.88
2022-10-27T08:08:12.755Z,100701.56
2022-10-27T08:10:40.146Z,100702.25
2022-10-27T08:13:07.201Z,100701.94
2022-10-27T08:15:33.797Z,100696.38
2022-10-27T08:18:02.507Z,100695.16
2022-10-27T08:20:32.026Z,100695.84
2022-10-27T08:22:59.711Z,100694.31
2022-10-27T08:25:26.885Z,100696.13
2022-10-27T08:27:53.670Z,100702.06
2022-10-27T08:30:21.141Z,100705.13
2022-10-27T08:32:51.204Z,100695.09
2022-10-27T08:35:17.873Z,100701.09
2022-10-27T08:37:44.270Z,100707.91
2022-10-27T08:40:10.852Z,100713.69
2022-10-27T08:42:51.268Z,100710.75
2022-10-27T08:45:29.723Z,100708.78
2022-10-27T08:47:58.053Z,100712.72
2022-10-27T08:50:27.068Z,100709.13
2022-10-27T08:53:04.931Z,100707.06
2022-10-27T08:55:51.553Z,100697.22
2022-10-27T08:58:35.344Z,100700.59
2022-10-27T09:01:35.399Z,100701.09
2022-10-27T09:04:08.261Z,100712.28
2022-10-27T09:06:43.737Z,100711.50
2022-10-27T09:09:32.081Z,100720.97
2022-10-27T09:12:36.179Z,100722.44
2022-10-27T09:15:11.350Z,100716.00
2022-10-27T09:17:54.989Z,100705.81
2022-10-27T09:20:25.089Z,100705.44
2022-10-27T09:22:53.368Z,100709.59
2022-10-27T09:25:21.408Z,100698.81
2022-10-27T09:27:56.598Z,100693.69
2022-10-27T09:30:23.172Z,100706.94
2022-10-27T09:32:53.673Z,100702.50
2022-10-27T09:35:23.916Z,100702.09
2022-10-27T09:37:51.764Z,100714.13
2022-10-27T09:40:20.474Z,100713.94
2022-10-27T09:42:49.491Z,100719.78
2022-10-27T09:45:19.555Z,100710.50
2022-10-27T09:47:49.775Z,100714.53
2022-10-27T09:50:22.993Z,100713.41
2022-10-27T09:52:50.240Z,100717.97
2022-10-27T09:55:17.692Z,100718.34
2022-10-27T09:57:46.404Z,100711.25
2022-10-27T10:00:22.023Z,100705.84
2022-10-27T10:05:35.640Z,100707.59
2022-10-27T10:08:23.363Z,100704.22
2022-10-27T10:10:58.228Z,100700.94
2022-10-27T10:13:26.107Z,100702.25
2022-10-27T10:16:13.411Z,100706.50
2022-10-27T10:18:41.112Z,100703.56
2022-10-27T10:21:09.805Z,100700.56
2022-10-27T10:23:42.079Z,100703.69
2022-10-27T10:26:17.580Z,100698.16
2022-10-27T10:28:44.712Z,100703.16
2022-10-27T10:31:13.588Z,100705.50
2022-10-27T10:33:42.134Z,100697.84
2022-10-27T10:36:38.685Z,100693.84
2022-10-27T10:39:27.779Z,100691.72
2022-10-27T10:42:09.464Z,100694.69
2022-10-27T10:44:36.489Z,100687.97
2022-10-27T10:47:03.549Z,100694.81
2022-10-27T10:49:36.735Z,100688.31
2022-10-27T10:52:25.362Z,100679.78
2022-10-27T10:54:52.324Z,100687.22
2022-10-27T10:57:35.379Z,100678.81
2022-10-27T11:00:04.012Z,100674.63
2022-10-27T11:02:34.401Z,100672.25
2022-10-27T11:05:18.901Z,100679.19
2022-10-27T11:07:46.860Z,100678.97
2022-10-27T11:10:22.931Z,100669.91
2022-10-27T11:12:56.002Z,100671.03
2022-10-27T11:15:29.708Z,100668.16
2022-10-27T11:18:03.193Z,100670.38
2022-10-27T11:20:33.591Z,100663.84
2022-10-27T11:23:00.405Z,100657.22
2022-10-27T11:25:30.257Z,100654.34
2022-10-27T11:28:05.148Z,100654.72
2022-10-27T11:30:35.144Z,100641.56
2022-10-27T11:33:30.828Z,100639.22
2022-10-27T11:36:10.464Z,100638.63
2022-10-27T11:38:43.178Z,100631.88
2022-10-27T11:41:16.796Z,100620.63
2022-10-27T11:43:56.854Z,100625.50
2022-10-27T11:46:31.920Z,100623.94
2022-10-27T11:49:24.275Z,100612.66
2022-10-27T11:51:57.391Z,100617.88
2022-10-27T11:54:23.814Z,100613.03
2022-10-27T11:57:11.585Z,100615.09
2022-10-27T11:59:42.664Z,100603.97
2022-10-27T12:02:25.221Z,100607.72
2022-10-27T12:05:07.336Z,100598.84
2022-10-27T12:07:47.784Z,100597.53
2022-10-27T12:10:23.083Z,100592.53
2022-10-27T12:13:05.416Z,100590.47
2022-10-27T12:15:51.715Z,100587.91
2022-10-27T12:18:25.742Z,100590.97
2022-10-27T12:21:44.785Z,100599.19
2022-10-27T12:24:11.011Z,100606.44
2022-10-27T12:26:40.383Z,100593.56
2022-10-27T12:29:07.442Z,100594.91
2022-10-27T12:31:39.151Z,100588.91
2022-10-27T12:34:08.599Z,100587.31
2022-10-27T12:36:46.046Z,100587.66
2022-10-27T12:39:19.803Z,100587.13
2022-10-27T12:42:14.080Z,100584.66
2022-10-27T12:45:12.939Z,100588.50
2022-10-27T12:47:57.735Z,100591.25
2022-10-27T12:50:38.532Z,100585.84
2022-10-27T12:53:26.440Z,100582.28
2022-10-27T12:55:54.708Z,100574.44
2022-10-27T12:58:35.942Z,100570.50
2022-10-27T13:01:33.209Z,100572.06
2022-10-27T13:04:21.736Z,100568.03
2022-10-27T13:07:06.400Z,100560.59
2022-10-27T13:09:38.596Z,100554.81
2022-10-27T13:12:10.719Z,100565.00
2022-10-27T13:14:55.122Z,100552.06
2022-10-27T13:17:32.117Z,100554.34
2022-10-27T13:20:22.081Z,100546.31
2022-10-27T13:22:55.480Z,100556.63
2022-10-27T13:25:26.431Z,100539.69
2022-10-27T13:28:17.332Z,100545.03
2022-10-27T13:30:57.617Z,100546.03
2022-10-27T13:33:37.871Z,100547.72
2022-10-27T13:36:20.358Z,100542.94
2022-10-27T13:38:47.873Z,100535.34
2022-10-27T13:41:49.834Z,100541.16
2022-10-27T13:44:32.094Z,100543.97
2022-10-27T13:47:04.185Z,100543.00
2022-10-27T13:49:42.468Z,100542.16
2022-10-27T13:52:14.837Z,100542.00
2022-10-27T13:55:02.201Z,100538.94
2022-10-27T13:57:55.111Z,100537.66
2022-10-27T14:00:24.183Z,100547.97
2022-10-27T14:03:19.846Z,100545.16
2022-10-27T14:05:48.019Z,100543.75
2022-10-27T14:08:24.033Z,100536.84
2022-10-27T14:10:51.927Z,100535.13
2022-10-27T14:13:41.342Z,100534.00
2022-10-27T14:16:08.580Z,100523.88
2022-10-27T14:18:37.403Z,100529.69
2022-10-27T14:21:22.481Z,100520.38
2022-10-27T14:23:49.120Z,100531.41
2022-10-27T14:26:33.167Z,100528.56
2022-10-27T14:28:59.991Z,100518.44
2022-10-27T14:31:26.476Z,100511.06
2022-10-27T14:33:53.590Z,100503.75
2022-10-27T14:36:30.037Z,100501.78
2022-10-27T14:39:14.641Z,100494.44
2022-10-27T14:41:46.696Z,100503.19
2022-10-27T14:44:17.627Z,100497.38
2022-10-27T14:46:45.380Z,100506.44
2022-10-27T14:49:17.558Z,100505.72
2022-10-27T14:51:46.107Z,100507.56
2022-10-27T14:54:15.694Z,100508.69
2022-10-27T14:56:42.088Z,100504.16
2022-10-27T14:59:27.861Z,100508.69
2022-10-27T15:01:54.512Z,100514.75
2022-10-27T15:04:20.864Z,100507.41
2022-10-27T15:06:48.388Z,100511.78
2022-10-27T15:09:29.324Z,100521.66
2022-10-27T15:11:56.263Z,100524.47
2022-10-27T15:14:22.903Z,100516.84
2022-10-27T15:16:49.424Z,100517.97
2022-10-27T15:19:17.122Z,100516.31
2022-10-27T15:21:45.338Z,100511.94
2022-10-27T15:24:15.864Z,100516.59
2022-10-27T15:26:42.369Z,100514.88
2022-10-27T15:29:14.972Z,100517.03
2022-10-27T15:31:42.693Z,100508.53
2022-10-27T15:34:35.890Z,100513.47
2022-10-27T15:37:20.768Z,100517.69
2022-10-27T15:39:47.200Z,100514.72
2022-10-27T15:42:28.751Z,100505.53
2022-10-27T15:45:26.013Z,100498.34
2022-10-27T15:47:52.415Z,100498.16
2022-10-27T15:50:24.634Z,100504.94
2022-10-27T15:53:12.089Z,100503.91
2022-10-27T15:55:39.401Z,100500.81
2022-10-27T15:58:32.379Z,100502.63
2022-10-27T16:01:23.729Z,100503.28
2022-10-27T16:03:58.539Z,100495.94
2022-10-27T16:06:35.344Z,100500.13
2022-10-27T16:09:05.312Z,100500.06
2022-10-27T16:11:35.260Z,100502.69
2022-10-27T16:14:07.015Z,100509.41
2022-10-27T16:16:36.973Z,100499.13
2022-10-27T16:19:07.991Z,100495.84
2022-10-27T16:21:34.668Z,100499.66
2022-10-27T16:24:10.499Z,100496.25
2022-10-27T16:26:36.949Z,100498.22
2022-10-27T16:29:04.047Z,100494.09
2022-10-27T16:31:30.726Z,100488.19
2022-10-27T16:33:57.515Z,100498.16
